Latest Weather Observations for Minnipa RS

IDS60801

Issued at 12:31 pm CST Sunday 30 August 2015 (issued every 30 minutes, with the page automatically refreshed every 10 minutes)

About weather observations | Map of weather stations | Latest weather observations for SA | Other Formats
Station Details ID: 018195 Name: MINNIPA PIRSA Lat: -32.84 Lon: 135.15 Height: 165.0 m
Data from the previous 72 hours. | See also: Recent months at Minnipa RS
Date/Time
CST
Temp
°C
App
Temp
°C
Dew
Point
Rel
Hum
%
Delta-T
°C
Wind Press
QNH
hPa
Press
MSL
hPa
Rain
since 9 am
mm
Dir
 
Spd
km/h
Gust
km/h
Spd
kts
Gust
kts
30/12:30pm 16.9 12.0 3.9 42 6.1 N 19 24 10 13 1023.6 - 0.0
30/12:00pm 17.0 12.6 6.5 50 5.2 NNE 19 26 10 14 1023.9 1023.9 0.0
30/11:30am 16.4 11.6 4.4 45 5.7 N 19 30 10 16 1024.3 - 0.0
30/11:00am 15.9 11.0 4.9 48 5.2 N 20 30 11 16 1024.7 - 0.0
30/10:30am 14.9 9.5 4.6 50 4.8 NNE 22 28 12 15 1024.9 - 0.0
30/10:00am 13.9 9.2 5.0 55 4.2 NNE 19 26 10 14 1025.0 - 0.0
30/09:30am 12.1 7.6 5.9 66 2.9 NNE 19 24 10 13 1025.3 - 0.0
30/09:00am 10.6 6.3 5.4 70 2.4 NNE 17 22 9 12 1025.3 1025.4 0.0
30/08:30am 9.3 5.1 5.7 78 1.7 NNE 17 22 9 12 1025.4 - 0.0
30/08:00am 7.4 2.6 4.7 83 1.2 NE 19 22 10 12 1024.8 - 0.0
30/07:30am 5.7 0.6 3.9 88 0.8 ENE 20 22 11 12 1024.5 - 0.0
30/07:00am 4.9 -0.7 3.4 90 0.6 ENE 22 24 12 13 1024.2 - 0.0
30/06:30am 4.9 -0.7 3.2 89 0.7 ENE 22 24 12 13 1023.7 - 0.0
30/06:00am 5.2 -0.4 3.4 88 0.8 ENE 22 24 12 13 1023.7 1023.8 0.0
30/05:30am 4.9 -0.4 3.1 88 0.7 ENE 20 24 11 13 1023.7 - 0.0
30/05:00am 5.2 -0.4 3.2 87 0.8 ENE 22 24 12 13 1023.7 - 0.0
30/04:30am 5.3 -0.3 3.2 86 0.9 ENE 22 24 12 13 1023.7 - 0.0
30/04:00am 5.3 -0.4 3.0 85 1.0 ENE 22 24 12 13 1024.1 - 0.0
30/03:30am 5.4 -0.3 2.8 83 1.1 ENE 22 26 12 14 1024.1 - 0.0
30/03:00am 5.6 -0.1 2.8 82 1.2 ENE 22 24 12 13 1024.4 1024.5 0.0
30/02:30am 5.6 -0.1 2.6 81 1.2 ENE 22 24 12 13 1024.7 - 0.0
30/02:00am 5.4 -0.3 2.8 83 1.1 ENE 22 24 12 13 1025.0 - 0.0
30/01:30am 5.9 0.5 2.7 80 1.3 ENE 20 24 11 13 1025.3 - 0.0
30/01:00am 6.7 1.0 3.1 78 1.5 ENE 22 24 12 13 1025.5 - 0.0
30/12:30am 7.1 1.8 3.2 76 1.7 E 20 24 11 13 1025.7 - 0.0
30/12:00am 6.9 1.7 3.3 78 1.5 ENE 20 22 11 12 1025.9 1026.0 0.0
 
Date/Time
CST
Temp
°C
App
Temp
°C
Dew
Point
Rel
Hum
%
Delta-T
°C
Wind Press
QNH
hPa
Press
MSL
hPa
Rain
since 9 am
mm
Dir
 
Spd
km/h
Gust
km/h
Spd
kts
Gust
kts
29/11:30pm 7.1 1.9 3.7 79 1.5 ENE 20 24 11 13 1026.0 - 0.0
29/11:00pm 7.5 2.4 3.9 78 1.6 ENE 20 26 11 14 1026.2 - 0.0
29/10:30pm 8.5 2.6 3.9 73 2.0 E 24 33 13 18 1026.3 - 0.0
29/10:00pm 8.4 3.0 4.4 76 1.8 E 22 30 12 16 1026.3 - 0.0
29/09:30pm 8.2 3.4 4.6 78 1.6 E 19 24 10 13 1026.3 - 0.0
29/09:00pm 8.8 4.1 5.2 78 1.6 ESE 19 24 10 13 1026.3 1026.4 0.0
29/08:30pm 9.6 4.8 5.6 76 1.8 ESE 20 26 11 14 1026.1 - 0.0
29/08:00pm 10.1 5.8 5.1 71 2.3 ESE 17 20 9 11 1025.8 - 0.0
29/07:30pm 10.2 5.9 5.4 72 2.2 ESE 17 20 9 11 1025.6 - 0.0
29/07:00pm 10.0 6.0 5.0 71 2.3 ESE 15 17 8 9 1025.3 - 0.0
29/06:30pm 9.8 6.2 5.2 73 2.1 ESE 13 15 7 8 1025.1 - 0.0
29/06:00pm 11.7 8.2 5.6 66 2.8 ESE 13 15 7 8 1025.0 1025.1 0.0
29/05:30pm 14.0 10.9 5.4 56 4.1 ESE 11 15 6 8 1024.8 - 0.0
29/05:00pm 15.2 11.7 5.4 52 4.7 SE 13 19 7 10 1024.7 - 0.0
29/04:30pm 15.7 12.1 5.0 49 5.1 SE 13 19 7 10 1024.7 - 0.0
29/04:00pm 16.2 12.9 4.3 45 5.6 SE 11 20 6 11 1024.7 - 0.0
29/03:30pm 16.2 12.6 2.9 41 6.1 ESE 11 15 6 8 1024.9 - 0.0
29/03:00pm 16.5 14.2 5.5 48 5.3 ENE 7 9 4 5 1025.0 1025.1 0.0
29/02:30pm 16.7 13.9 3.4 41 6.2 SSE 7 11 4 6 1025.3 - 0.0
29/02:00pm 16.2 13.4 3.3 42 6.0 E 7 13 4 7 1025.5 - 0.0
29/01:30pm 15.4 13.2 5.3 51 4.8 SSE 6 9 3 5 1025.8 - 0.0
29/01:00pm 16.1 13.6 4.8 47 5.4 ENE 7 13 4 7 1026.4 - 0.0
29/12:30pm 15.5 12.1 2.0 40 6.0 ENE 9 15 5 8 1026.8 - 0.0
29/12:00pm 15.6 12.3 4.6 48 5.2 ENE 11 17 6 9 1027.3 1027.4 0.0
29/11:30am 15.0 11.4 5.2 52 4.7 E 13 19 7 10 1027.6 - 0.0
29/11:00am 14.4 11.5 6.5 59 3.8 NE 11 15 6 8 1027.9 - 0.0
29/10:30am 13.4 9.6 6.0 61 3.5 NE 15 20 8 11 1028.0 - 0.0
29/10:00am 12.3 7.8 6.8 69 2.7 ENE 20 26 11 14 1027.9 - 0.0
29/09:30am 10.7 5.6 6.1 73 2.2 ENE 22 30 12 16 1027.9 - 0.0
29/09:00am 9.4 4.3 5.8 78 1.6 ENE 22 30 12 16 1027.9 1028.0 0.2
29/08:30am 8.0 3.2 5.5 84 1.1 ENE 20 28 11 15 1027.9 - 0.2
29/08:00am 6.8 1.9 5.0 88 0.8 ENE 20 28 11 15 1027.6 - 0.2
29/07:30am 6.0 1.2 4.5 90 0.7 E 19 24 10 13 1027.3 - 0.2
29/07:00am 5.6 0.8 4.4 92 0.5 E 19 22 10 12 1027.0 - 0.2
29/06:30am 5.9 0.9 4.5 91 0.6 ENE 20 24 11 13 1026.7 - 0.2
29/06:00am 6.1 1.3 4.7 91 0.6 E 19 22 10 12 1026.5 1026.6 0.2
29/05:30am 6.5 1.8 5.0 90 0.7 E 19 22 10 12 1026.4 - 0.2
29/05:00am 6.8 2.1 5.3 90 0.7 ENE 19 22 10 12 1026.4 - 0.2
29/04:30am 7.0 3.2 5.6 91 0.6 E 15 20 8 11 1026.4 - 0.2
29/04:00am 6.8 2.9 5.4 91 0.6 E 15 19 8 10 1026.4 - 0.2
29/03:30am 6.8 2.9 5.3 90 0.7 E 15 19 8 10 1026.7 - 0.2
29/03:00am 7.2 2.6 5.7 90 0.7 ENE 19 22 10 12 1026.8 1026.9 0.2
29/02:30am 7.4 3.6 5.9 90 0.7 E 15 19 8 10 1027.1 - 0.2
29/02:00am 6.9 2.7 5.5 91 0.6 E 17 19 9 10 1027.5 - 0.2
29/01:30am 6.8 2.9 5.3 90 0.7 E 15 17 8 9 1027.8 - 0.2
29/01:00am 7.2 3.0 5.5 89 0.8 E 17 20 9 11 1027.8 - 0.2
29/12:30am 7.4 2.8 5.7 89 0.8 E 19 22 10 12 1027.8 - 0.2
29/12:00am 7.2 2.6 5.8 91 0.6 E 19 24 10 13 1027.9 1028.0 0.2
 
Date/Time
CST
Temp
°C
App
Temp
°C
Dew
Point
Rel
Hum
%
Delta-T
°C
Wind Press
QNH
hPa
Press
MSL
hPa
Rain
since 9 am
mm
Dir
 
Spd
km/h
Gust
km/h
Spd
kts
Gust
kts
28/11:30pm 6.9 3.1 5.7 92 0.5 ESE 15 19 8 10 1028.2 - 0.2
28/11:00pm 6.8 3.3 5.6 92 0.5 ESE 13 15 7 8 1028.4 - 0.2
28/10:30pm 6.8 3.0 5.6 92 0.5 ESE 15 17 8 9 1028.3 - 0.2
28/10:00pm 7.3 3.5 5.9 91 0.6 ESE 15 19 8 10 1028.2 - 0.2
28/09:30pm 7.8 4.1 6.1 89 0.8 ESE 15 19 8 10 1028.1 - 0.2
28/09:00pm 8.5 4.1 6.6 88 0.9 ESE 19 22 10 12 1027.9 1028.0 0.2
28/08:30pm 8.7 4.7 6.8 88 0.9 SE 17 22 9 12 1027.7 - 0.2
28/08:00pm 7.9 4.5 6.0 88 0.9 SE 13 17 7 9 1027.4 - 0.2
28/07:30pm 8.0 4.5 5.6 85 1.1 SE 13 15 7 8 1027.2 - 0.2
28/07:00pm 8.2 4.6 5.1 81 1.4 SE 13 13 7 7 1026.9 - 0.2
28/06:30pm 8.6 5.4 5.2 79 1.5 SE 11 13 6 7 1026.7 - 0.2
28/06:00pm 10.0 6.9 5.4 73 2.1 SE 11 13 6 7 1026.3 1026.4 0.2
28/05:30pm 12.2 8.6 5.1 62 3.3 SE 13 15 7 8 1026.2 - 0.2
28/05:00pm 13.9 10.2 4.5 53 4.4 ESE 13 17 7 9 1026.1 - 0.2
28/04:30pm 12.8 10.6 6.4 65 3.1 SE 7 11 4 6 1026.1 - 0.2
28/04:00pm 15.2 12.2 6.2 55 4.4 ESE 11 20 6 11 1026.1 - 0.2
28/03:30pm 14.6 11.3 4.3 50 4.8 SE 11 19 6 10 1026.4 - 0.2
28/03:00pm 13.7 10.8 6.3 61 3.5 SE 11 13 6 7 1026.5 1026.6 0.2
28/02:30pm 14.6 11.4 4.9 52 4.6 E 11 15 6 8 1026.8 - 0.2
28/02:00pm 14.8 12.0 6.9 59 3.9 SE 11 19 6 10 1027.1 - 0.2
28/01:30pm 14.6 11.5 7.4 62 3.6 SSE 13 19 7 10 1027.5 - 0.2
28/01:00pm 13.9 11.4 6.7 62 3.5 ESE 9 17 5 9 1028.1 - 0.2
28/12:30pm 13.8 11.4 6.9 63 3.4 E 9 22 5 12 1028.7 - 0.2
28/12:00pm 13.1 10.1 7.5 69 2.7 E 13 19 7 10 1029.2 1029.4 0.2
28/11:30am 12.1 8.5 6.8 70 2.6 E 15 20 8 11 1029.7 - 0.2
28/11:00am 12.3 8.3 6.6 68 2.7 ENE 17 22 9 12 1029.9 - 0.0
28/10:30am 11.7 7.5 7.4 75 2.1 E 19 22 10 12 1030.3 - 0.0
28/10:00am 10.6 7.6 7.5 81 1.5 E 13 20 7 11 1030.3 - 0.0
28/09:30am 10.2 6.5 8.1 87 1.0 E 17 22 9 12 1030.5 - 0.0
28/09:00am 9.3 6.4 8.1 92 0.6 E 13 17 7 9 1030.5 1030.6 0.0
28/08:30am 8.0 5.3 7.2 95 0.4 E 11 15 6 8 1030.3 - 0.0
28/08:00am 7.4 5.0 6.8 96 0.3 E 9 13 5 7 1030.0 - 0.0
28/07:30am 5.6 2.4 5.0 96 0.3 ENE 11 13 6 7 1029.8 - 0.0
28/07:00am 4.7 1.7 4.1 96 0.3 ENE 9 13 5 7 1029.6 - 0.0
28/06:30am 4.4 1.7 3.8 96 0.3 E 7 9 4 5 1029.5 - 0.0
28/06:00am 5.1 2.2 4.5 96 0.3 ESE 9 11 5 6 1029.4 1029.6 0.0
28/05:30am 4.1 0.6 3.5 96 0.2 ESE 11 13 6 7 1029.2 - 0.0
28/05:00am 4.5 1.1 3.9 96 0.3 SE 11 13 6 7 1029.1 - 0.0
28/04:30am 4.2 1.1 3.6 96 0.3 SE 9 13 5 7 1028.9 - 0.0
28/04:00am 2.7 -0.7 2.0 95 0.3 SE 9 11 5 6 1028.8 - 0.0
28/03:30am 3.5 -0.1 2.8 95 0.3 SE 11 11 6 6 1028.9 - 0.0
28/03:00am 3.9 0.7 3.0 94 0.4 SE 9 11 5 6 1029.2 1029.4 0.0
28/02:30am 4.9 1.9 4.0 94 0.4 SE 9 11 5 6 1029.3 - 0.0
28/02:00am 5.5 2.2 4.5 93 0.4 ESE 11 15 6 8 1029.4 - 0.0
28/01:30am 5.5 1.8 4.6 94 0.4 ESE 13 15 7 8 1029.4 - 0.0
28/01:00am 5.4 1.7 4.4 93 0.4 ESE 13 15 7 8 1029.4 - 0.0
28/12:30am 5.6 1.9 4.4 92 0.5 ESE 13 15 7 8 1029.5 - 0.0
28/12:00am 6.0 2.4 4.8 92 0.5 ESE 13 15 7 8 1029.5 1029.7 0.0
 
Date/Time
CST
Temp
°C
App
Temp
°C
Dew
Point
Rel
Hum
%
Delta-T
°C
Wind Press
QNH
hPa
Press
MSL
hPa
Rain
since 9 am
mm
Dir
 
Spd
km/h
Gust
km/h
Spd
kts
Gust
kts
27/11:30pm 6.6 3.1 5.4 92 0.5 ESE 13 17 7 9 1029.6 - 0.0
27/11:00pm 6.6 3.1 5.4 92 0.5 ESE 13 15 7 8 1029.7 - 0.0
27/10:30pm 6.2 2.6 5.2 93 0.4 ESE 13 15 7 8 1029.6 - 0.0
27/10:00pm 5.9 2.6 4.7 92 0.5 SE 11 13 6 7 1029.5 - 0.0
27/09:30pm 6.8 3.7 5.4 91 0.6 SSE 11 13 6 7 1029.5 - 0.0
27/09:00pm 7.1 4.8 5.6 90 0.7 S 7 9 4 5 1029.2 1029.4 0.0
27/08:30pm 7.4 4.3 5.7 89 0.8 S 11 13 6 7 1029.0 - 0.0
27/08:00pm 8.0 4.6 6.0 87 0.9 S 13 17 7 9 1028.9 - 0.0
27/07:30pm 8.3 4.9 5.9 85 1.1 S 13 17 7 9 1028.6 - 0.0
27/07:00pm 7.6 4.8 5.1 84 1.1 S 9 11 5 6 1028.4 - 0.0
27/06:30pm 8.6 5.9 5.4 80 1.5 S 9 11 5 6 1028.1 - 0.0
27/06:00pm 10.3 7.7 6.1 75 2.0 SE 9 11 5 6 1027.8 1027.9 0.0
27/05:30pm 12.4 9.4 6.0 65 3.0 SSE 11 13 6 7 1027.7 - 0.0
27/05:00pm 12.2 8.8 5.8 65 3.0 SSE 13 17 7 9 1027.6 - 0.0
27/04:30pm 13.6 10.2 5.7 59 3.8 S 13 17 7 9 1027.5 - 0.0
27/04:00pm 13.2 9.9 6.3 63 3.3 S 13 19 7 10 1027.4 - 0.0
27/03:30pm 13.1 9.2 5.3 59 3.7 SSE 15 20 8 11 1027.4 - 0.0
27/03:00pm 13.9 10.7 5.3 56 4.0 SSE 11 17 6 9 1027.4 1027.5 0.0
27/02:30pm 12.8 9.9 6.4 65 3.1 S 11 17 6 9 1027.4 - 0.0
27/02:00pm 13.0 9.9 5.4 60 3.6 SSE 11 19 6 10 1027.6 - 0.0
27/01:30pm 13.0 8.4 5.7 61 3.5 SSE 19 24 10 13 1027.7 - 0.0
27/01:00pm 13.6 9.2 5.0 56 4.0 S 17 26 9 14 1028.0 - 0.0

Other Formats:

Comma delimited format used in spreadsheet applications
http://www.bom.gov.au/fwo/IDS60801/IDS60801.95662.axf

JavaScript Object Notation format (JSON) in row-major order
http://www.bom.gov.au/fwo/IDS60801/IDS60801.95662.json